• Join FlightAware (Why Join?)
  • Login
  • US Flag 
11:19PM EDT


 

Airport Tracker/Info


-or-


 

Live Flight TrackerFlight Track Log ✈ SWA2336 ✈ 27-Oct-2013 ✈ KLAS - KDEN

Flight Track Log - Related Links

Times and Time Zones

All times are in EDT time to prevent confusion due to time zone crossing. See the SWA2336 flight status page for this flight to view local times or setup timezone preferences in your user account.

Time Position Orientation Groundspeed Altitude Reporting Facility
EDT Latitude Longitude Course Direction KTS MPH feet Rate Location/Type
03:35PM 36.0772 -115.1839 82° East 210 242 3,400  Level Los Angeles Center
03:36PM 36.0772 -115.2131 270° West 215 247 4,000 2,820 Climbing Los Angeles Center
03:37PM 36.1025 -115.2900 292° West 243 280 7,700 3,240 Climbing Los Angeles Center
03:37PM 36.1058 -115.2889 15° North 234 269 7,900 1,320 Climbing Los Angeles Center
03:38PM 36.1650 -115.2694 15° North 273 314 9,100 1,320 Climbing Los Angeles Center
03:38PM 36.1681 -115.2625 61° Northeast 266 306 9,300 1,380 Climbing Los Angeles Center
03:39PM 36.1950 -115.1672 71° East 312 359 10,700 1,740 Climbing Los Angeles Center
03:40PM 36.1967 -115.0481 89° East 345 397 13,000 2,340 Climbing Los Angeles Center
03:41PM 36.4066 -114.3757 82° East  Level Estimated
03:41PM 36.1975 -114.9233 89° East 362 417 15,600  Level Los Angeles Center
03:42PM 36.1992 -114.7672 89° East 380 437 17,800 2,160 Climbing Los Angeles Center
03:43PM 36.1978 -114.6297 91° East 396 456 20,100 1,860 Climbing Los Angeles Center
03:44PM 36.1950 -114.4903 91° East 405 466 21,700 1,560 Climbing Los Angeles Center
03:45PM 36.1942 -114.3450 90° East 420 483 23,400 1,440 Climbing Los Angeles Center
03:46PM 36.1989 -114.1944 88° East 440 506 24,700 1,500 Climbing Los Angeles Center
03:47PM 36.2206 -114.0081 82° East 458 527 26,500 1,500 Climbing Los Angeles Center
03:48PM 36.2397 -113.8514 81° East 461 531 27,800 960 Climbing Los Angeles Center
03:49PM 36.2586 -113.6875 82° East 476 548 28,600 720 Climbing Los Angeles Center
03:50PM 36.2783 -113.5186 82° East 492 566 29,300 900 Climbing Los Angeles Center
03:51PM 36.2978 -113.3431 82° East 511 588 30,500 1,500 Climbing Los Angeles Center
03:52PM 36.3397 -113.1489 75° East 513 590 32,400 1,440 Climbing Los Angeles Center
03:53PM 36.3986 -112.9925 65° Northeast 505 581 33,500 1,080 Climbing Los Angeles Center
03:54PM 36.4575 -112.8361 65° Northeast 503 579 34,700 720 Climbing Los Angeles Center
03:55PM 36.5139 -112.6786 66° East 501 577 35,000 120 Climbing Los Angeles Center
03:56PM 36.5733 -112.5181 65° Northeast 512 589 35,000  Level Los Angeles Center
03:57PM 36.6433 -112.3239 66° East 516 594 35,000  Level Los Angeles Center
03:58PM 36.7019 -112.1642 65° Northeast 512 589 35,000  Level Los Angeles Center
04:00PM 36.7594 -112.0036 66° East 511 588 35,000  Level Los Angeles Center
04:01PM 36.8292 -111.8103 66° East 513 590 35,000  Level Los Angeles Center
04:02PM 36.8872 -111.6486 66° East 514 592 35,000  Level Los Angeles Center
04:03PM 36.9556 -111.4544 66° East 513 590 35,000  Level Los Angeles Center
04:04PM 37.0133 -111.2931 66° East 512 589 35,000  Level Los Angeles Center
04:05PM 37.0683 -111.1314 67° East 508 585 35,000  Level Los Angeles Center
04:06PM 37.1367 -110.9353 66° East 512 589 35,000  Level Denver Center
04:07PM 37.2053 -110.7392 66° East 514 592 35,000  Level Denver Center
04:08PM 37.2600 -110.5756 67° East 512 589 35,000  Level Denver Center
04:09PM 37.3167 -110.4108 67° East 515 593 35,000  Level Denver Center
04:10PM 37.3728 -110.2461 67° East 514 592 35,000  Level Denver Center
04:11PM 37.4339 -110.0658 67° East 516 594 35,000  Level Denver Center
04:12PM 37.4878 -109.9064 67° East 515 593 35,000  Level Denver Center
04:13PM 37.5500 -109.7206 67° East 515 593 35,000  Level Denver Center
04:14PM 37.6025 -109.5600 68° East 515 593 35,000  Level Denver Center
04:15PM 37.6650 -109.3717 67° East 519 597 35,000  Level Denver Center
04:17PM 37.7172 -109.2108 68° East 517 595 35,000  Level Denver Center
04:18PM 37.7842 -109.0253 65° Northeast 519 597 35,000  Level Denver Center
04:19PM 37.8550 -108.8775 59° Northeast 514 592 35,000  Level Denver Center
04:20PM 37.9383 -108.7036 59° Northeast 516 594 35,000  Level Denver Center
04:21PM 38.0086 -108.5539 59° Northeast 516 594 35,000  Level Denver Center
04:22PM 38.0853 -108.3928 59° Northeast 520 598 35,000  Level Denver Center
04:23PM 38.1664 -108.2194 59° Northeast 514 592 35,000  Level Denver Center
04:24PM 38.2358 -108.0719 59° Northeast 510 587 35,000  Level Denver Center
04:25PM 38.3158 -107.8975 60° Northeast 510 587 35,000  Level Denver Center
04:26PM 38.3842 -107.7514 59° Northeast 504 580 35,000 -300 Level Denver Center
04:27PM 38.4506 -107.6061 60° Northeast 500 575 34,500 -780 Descending Denver Center
04:28PM 38.5289 -107.4344 60° Northeast 502 578 33,400 -1,020 Descending Denver Center
04:29PM 38.5947 -107.2903 60° Northeast 496 571 32,500 -960 Descending Denver Center
04:30PM 38.6728 -107.1200 60° Northeast 489 563 31,400 -720 Descending Denver Center
04:31PM 38.7403 -106.9692 60° Northeast 491 565 31,000 -240 Descending Denver Center
04:32PM 38.8081 -106.8183 60° Northeast 491 565 31,000  Level Denver Center
04:33PM 38.8764 -106.6650 60° Northeast 497 572 31,000  Level Denver Center
04:34PM 38.9547 -106.4878 60° Northeast 503 579 31,000  Level Denver Center
04:35PM 39.0211 -106.3397 60° Northeast 501 577 31,000 -540 Level Denver Center
04:36PM 39.0936 -106.1753 60° Northeast 478 550 29,900 -2,040 Descending Denver Center
04:37PM 39.1600 -106.0186 61° Northeast 471 542 26,800 -2,580 Descending Denver Center
04:38PM 39.2239 -105.8761 60° Northeast 462 532 24,600 -2,100 Descending Denver Center
04:39PM 39.2819 -105.7414 61° Northeast 439 505 22,500 -2,040 Descending Denver Center
04:40PM 39.3378 -105.6111 61° Northeast 419 482 20,500 -1,740 Descending Denver Center
04:41PM 39.3958 -105.4756 61° Northeast 403 464 19,000 -1,560 Descending Denver Center
04:42PM 39.4028 -105.3350 86° East 364 419 17,300 -1,680 Descending Denver Center
04:43PM 39.4072 -105.2125 87° East 348 400 15,600 -1,620 Descending Denver Center
04:44PM 39.4125 -105.0953 87° East 334 384 14,000 -1,260 Descending Denver Center
04:45PM 39.4181 -104.9781 86° East 309 356 13,100 -600 Descending Denver Center
04:46PM 39.4308 -104.8844 80° East 268 308 12,800 -600 Descending Denver Center
04:48PM 39.4889 -104.8178 42° Northeast 261 300 11,900 -1,080 Descending Denver Center
04:49PM 39.5481 -104.7619 36° Northeast 264 304 10,600 -1,200 Descending Denver Center
04:50PM 39.6142 -104.7139 29° Northeast 256 295 9,500 -900 Descending Denver Center
04:51PM 39.6717 -104.6700 30° Northeast 244 281 8,800 -720 Descending Denver Center
04:52PM 39.7269 -104.6656 North 171 197 8,000 -1,080 Descending Denver Center
04:53PM 39.7714 -104.6611 North 160 184 6,600 -1,080 Descending Denver Center
04:54PM 39.8153 -104.6608 360° North 149 171 5,800 -540 Descending Denver Center
04:55PM 39.8481 -104.6614 359° North 134 154 5,500 -300 Descending Denver Center
04:57PM 39.8500 -104.6667 North  Level FlightAware Approximate
05:04PM 39.8617 -104.6732 North  Level Estimated
05:05PM 39.8617 -104.6732 North  Level Estimated